Time;durP1;ratioP1;P1;durP2;ratioP2;P2;SDS_P1;SDS_P2;PMS_P1;PMS_P2;Temp;Humidity;BMP_temperature;BMP_pressure;BME280_temperature;BME280_humidity;BME280_pressure;Samples;Min_cycle;Max_cycle;Signal;HPM_P1;HPM_P2
2021/12/25 00:21:25;;;;;;;7.57;6.75;;;;;;;;;;4323246;27;20502;-67
2021/12/25 00:23:51;;;;;;;13.75;6.85;;;;;;;;;;4291966;33;20549;-68
2021/12/25 00:26:40;;;;;;;7.80;7.00;;;;;;;;;;4288543;33;20118;-68
2021/12/25 00:29:27;;;;;;;7.50;6.55;;;;;;;;;;4288501;33;20507;-68
2021/12/25 00:32:43;;;;;;;8.68;7.03;;;;;;;;;;4265474;33;20199;-67
2021/12/25 00:34:40;;;;;;;9.07;7.47;;;;;;;;;;4286327;33;20175;-74
2021/12/25 00:37:07;;;;;;;8.60;7.22;;;;;;;;;;4275219;33;20447;-73
2021/12/25 00:39:33;;;;;;;8.20;6.90;;;;;;;;;;4274833;33;20107;-67
2021/12/25 00:42:01;;;;;;;8.65;6.87;;;;;;;;;;4263146;33;20186;-67
2021/12/25 00:44:28;;;;;;;9.10;7.57;;;;;;;;;;4275159;33;20514;-68
2021/12/25 00:46:55;;;;;;;7.20;6.50;;;;;;;;;;4288410;33;20104;-68
2021/12/25 00:49:21;;;;;;;8.05;6.87;;;;;;;;;;4287240;33;20116;-68
2021/12/25 00:51:47;;;;;;;7.97;6.68;;;;;;;;;;4286962;33;20104;-67
2021/12/25 00:54:15;;;;;;;7.60;6.65;;;;;;;;;;4288259;33;20124;-67
2021/12/25 00:56:41;;;;;;;8.98;6.87;;;;;;;;;;4286943;33;20776;-68
2021/12/25 00:59:07;;;;;;;8.00;6.55;;;;;;;;;;4287170;33;20443;-73
2021/12/25 01:01:33;;;;;;;11.88;7.68;;;;;;;;;;4288305;33;20096;-74
2021/12/25 01:03:59;;;;;;;9.00;7.03;;;;;;;;;;4287498;33;20214;-73
2021/12/25 01:06:26;;;;;;;8.63;7.70;;;;;;;;;;4289064;33;20142;-73
2021/12/25 01:08:52;;;;;;;8.60;7.53;;;;;;;;;;4289207;33;20205;-73
2021/12/25 01:11:18;;;;;;;9.88;7.72;;;;;;;;;;4277351;33;20250;-73
2021/12/25 01:13:54;;;;;;;12.37;7.53;;;;;;;;;;4290578;33;20202;-73
2021/12/25 01:24:22;;;;;;;8.23;7.10;;;;;;;;;;4277908;33;20126;-71
2021/12/25 01:37:38;;;;;;;8.50;7.45;;;;;;;;;;4278864;33;20324;-72
2021/12/25 01:48:17;;;;;;;7.32;6.60;;;;;;;;;;4290217;33;20119;-71
2021/12/25 01:50:43;;;;;;;7.68;6.87;;;;;;;;;;4276906;33;20120;-72
2021/12/25 01:53:10;;;;;;;9.45;7.78;;;;;;;;;;4264918;33;20127;-71
2021/12/25 01:55:36;;;;;;;7.70;6.68;;;;;;;;;;4274162;33;20104;-71
2021/12/25 01:58:04;;;;;;;8.25;7.18;;;;;;;;;;4275747;33;20097;-71
2021/12/25 02:00:40;;;;;;;8.02;7.00;;;;;;;;;;4262474;33;20221;-71
2021/12/25 02:03:09;;;;;;;7.72;6.93;;;;;;;;;;4286287;33;20112;-71
2021/12/25 02:05:36;;;;;;;7.53;6.72;;;;;;;;;;4262691;33;20096;-72
2021/12/25 02:08:02;;;;;;;9.77;6.93;;;;;;;;;;4286189;33;20538;-71
2021/12/25 02:10:28;;;;;;;8.55;7.10;;;;;;;;;;4286474;33;20115;-72
2021/12/25 02:12:54;;;;;;;9.60;8.00;;;;;;;;;;4275902;33;20131;-70
2021/12/25 02:15:23;;;;;;;9.68;7.07;;;;;;;;;;4275439;33;20547;-71
2021/12/25 02:18:16;;;;;;;9.85;6.72;;;;;;;;;;4285853;33;20609;-72
2021/12/25 02:21:01;;;;;;;7.72;6.95;;;;;;;;;;4265380;33;20183;-72
2021/12/25 02:23:27;;;;;;;8.00;6.62;;;;;;;;;;4288671;33;20598;-72
2021/12/25 02:25:55;;;;;;;8.25;6.72;;;;;;;;;;4276664;33;20206;-72
2021/12/25 02:28:22;;;;;;;8.80;7.65;;;;;;;;;;4265047;33;20110;-72
2021/12/25 02:30:50;;;;;;;9.35;6.55;;;;;;;;;;4276486;33;20176;-72
2021/12/25 02:33:17;;;;;;;7.82;7.03;;;;;;;;;;4276501;33;20103;-73
2021/12/25 02:35:43;;;;;;;7.84;6.56;;;;;;;;;;4276438;33;20095;-72
2021/12/25 02:38:10;;;;;;;7.75;6.12;;;;;;;;;;4288444;33;20521;-72
2021/12/25 02:40:36;;;;;;;9.50;6.68;;;;;;;;;;4289884;33;20115;-72
2021/12/25 02:43:02;;;;;;;11.50;7.22;;;;;;;;;;4289756;33;20125;-71
2021/12/25 02:45:28;;;;;;;11.30;7.80;;;;;;;;;;4288396;33;20123;-71
2021/12/25 02:47:56;;;;;;;7.35;6.45;;;;;;;;;;4289694;33;20111;-71
2021/12/25 02:50:30;;;;;;;8.05;5.97;;;;;;;;;;4264213;33;20120;-71
2021/12/25 02:52:57;;;;;;;8.07;7.28;;;;;;;;;;4264263;33;20103;-71
2021/12/25 02:55:25;;;;;;;7.53;6.75;;;;;;;;;;4276217;33;20183;-70
2021/12/25 02:57:52;;;;;;;9.40;6.90;;;;;;;;;;4276458;33;20135;-71
2021/12/25 03:00:23;;;;;;;9.05;6.60;;;;;;;;;;4288039;33;20240;-71
2021/12/25 03:02:49;;;;;;;7.95;6.90;;;;;;;;;;4276461;33;20123;-71
2021/12/25 03:05:16;;;;;;;7.85;7.05;;;;;;;;;;4276194;33;20108;-71
2021/12/25 03:07:42;;;;;;;7.03;6.32;;;;;;;;;;4276135;33;20199;-71
2021/12/25 03:10:10;;;;;;;8.45;7.05;;;;;;;;;;4276478;33;20118;-71
2021/12/25 03:12:47;;;;;;;8.80;7.15;;;;;;;;;;4275842;33;20541;-72
2021/12/25 03:15:17;;;;;;;10.02;7.12;;;;;;;;;;4275958;33;20124;-71
2021/12/25 03:17:44;;;;;;;8.43;6.85;;;;;;;;;;4289451;33;20104;-71
2021/12/25 03:20:11;;;;;;;9.77;8.27;;;;;;;;;;4289139;33;20116;-71
2021/12/25 03:22:38;;;;;;;9.52;7.50;;;;;;;;;;4275983;33;20198;-71
2021/12/25 03:25:13;;;;;;;7.87;6.65;;;;;;;;;;4263959;33;20104;-71
2021/12/25 03:27:40;;;;;;;10.13;6.95;;;;;;;;;;4263013;33;20119;-71
2021/12/25 03:30:08;;;;;;;9.75;7.00;;;;;;;;;;4275990;33;20143;-72
2021/12/25 03:32:34;;;;;;;15.85;7.80;;;;;;;;;;4289185;33;20126;-72
2021/12/25 03:35:00;;;;;;;10.52;7.03;;;;;;;;;;4289398;33;20124;-71
2021/12/25 03:37:27;;;;;;;7.87;6.47;;;;;;;;;;4276044;33;20080;-71
2021/12/25 03:39:53;;;;;;;8.50;6.80;;;;;;;;;;4289138;33;20127;-71
2021/12/25 03:42:20;;;;;;;7.90;6.25;;;;;;;;;;4289111;33;20115;-72
2021/12/25 03:44:46;;;;;;;7.97;6.60;;;;;;;;;;4287819;33;20115;-71
2021/12/25 03:47:30;;;;;;;8.85;7.03;;;;;;;;;;4275717;33;20198;-71
2021/12/25 03:58:14;;;;;;;7.78;6.65;;;;;;;;;;4289049;33;20099;-71
2021/12/25 04:00:43;;;;;;;7.90;6.85;;;;;;;;;;4276162;33;20197;-69
2021/12/25 04:03:17;;;;;;;10.05;7.03;;;;;;;;;;4275777;33;20171;-71
2021/12/25 04:05:46;;;;;;;9.27;6.50;;;;;;;;;;4276757;33;20115;-70
2021/12/25 04:08:15;;;;;;;8.70;7.28;;;;;;;;;;4275348;33;20131;-71
2021/12/25 04:10:43;;;;;;;8.32;6.65;;;;;;;;;;4288983;33;20153;-71
2021/12/25 04:13:12;;;;;;;7.35;6.55;;;;;;;;;;4275498;33;20558;-71
2021/12/25 04:15:39;;;;;;;8.15;6.85;;;;;;;;;;4275596;33;21074;-70
2021/12/25 04:18:05;;;;;;;16.65;7.50;;;;;;;;;;4288697;33;20198;-71
2021/12/25 04:20:31;;;;;;;7.97;7.03;;;;;;;;;;4275167;33;20199;-71
2021/12/25 04:23:06;;;;;;;20.77;8.35;;;;;;;;;;4288702;33;20511;-70
2021/12/25 04:25:33;;;;;;;7.18;6.22;;;;;;;;;;4276083;33;20087;-70
2021/12/25 04:28:10;;;;;;;22.25;7.93;;;;;;;;;;4275561;33;20108;-70
2021/12/25 04:31:01;;;;;;;9.40;8.00;;;;;;;;;;4276510;33;20512;-69
2021/12/25 04:50:00;;;;;;;10.00;7.72;;;;;;;;;;4279459;33;20198;-74
2021/12/25 05:03:45;;;;;;;9.00;6.57;;;;;;;;;;4279415;33;20214;-76
2021/12/25 05:06:11;;;;;;;8.82;6.72;;;;;;;;;;4290424;33;20213;-76
2021/12/25 05:08:38;;;;;;;9.35;7.15;;;;;;;;;;4290695;33;20210;-74
2021/12/25 05:11:04;;;;;;;8.73;6.55;;;;;;;;;;4290330;33;20187;-76
2021/12/25 05:13:30;;;;;;;7.90;6.68;;;;;;;;;;4290553;33;20116;-75
2021/12/25 05:15:56;;;;;;;7.78;6.57;;;;;;;;;;4288879;33;20618;-79
2021/12/25 05:18:22;;;;;;;7.90;6.60;;;;;;;;;;4290810;33;20131;-79
2021/12/25 05:20:49;;;;;;;10.43;6.68;;;;;;;;;;4289192;33;20187;-73
2021/12/25 05:23:15;;;;;;;9.27;7.37;;;;;;;;;;4290410;33;20527;-76
2021/12/25 05:25:41;;;;;;;11.48;7.05;;;;;;;;;;4277097;33;20191;-72
2021/12/25 05:28:07;;;;;;;8.80;6.78;;;;;;;;;;4277186;33;20100;-73
2021/12/25 05:30:34;;;;;;;9.45;7.18;;;;;;;;;;4276648;33;20113;-73
2021/12/25 05:33:00;;;;;;;8.32;6.80;;;;;;;;;;4275403;33;20119;-76
2021/12/25 05:35:26;;;;;;;8.20;7.35;;;;;;;;;;4287244;33;20098;-73
2021/12/25 05:37:57;;;;;;;9.93;7.20;;;;;;;;;;4289961;33;20124;-75
2021/12/25 05:40:24;;;;;;;10.57;7.55;;;;;;;;;;4290274;33;20178;-75
2021/12/25 05:42:51;;;;;;;12.18;7.95;;;;;;;;;;4290240;33;20134;-76
2021/12/25 05:45:17;;;;;;;9.45;6.95;;;;;;;;;;4288840;33;20522;-76
2021/12/25 05:47:43;;;;;;;13.65;8.40;;;;;;;;;;4288906;33;20202;-74
2021/12/25 05:50:09;;;;;;;12.48;9.00;;;;;;;;;;4288486;33;20145;-75
2021/12/25 05:52:35;;;;;;;8.65;7.75;;;;;;;;;;4289662;33;20212;-77
2021/12/25 05:55:01;;;;;;;20.33;8.35;;;;;;;;;;4290044;33;20534;-74
2021/12/25 05:57:27;;;;;;;9.07;7.50;;;;;;;;;;4276672;33;20104;-74
2021/12/25 05:59:53;;;;;;;7.72;6.82;;;;;;;;;;4290020;33;20119;-74
2021/12/25 06:02:20;;;;;;;8.48;6.97;;;;;;;;;;4276838;33;20130;-74
2021/12/25 06:04:46;;;;;;;9.00;6.50;;;;;;;;;;4288791;33;20119;-73
2021/12/25 06:07:12;;;;;;;13.80;6.62;;;;;;;;;;4276872;33;20517;-73
2021/12/25 06:09:39;;;;;;;7.97;6.70;;;;;;;;;;4288597;33;20127;-73
2021/12/25 06:12:07;;;;;;;12.15;6.28;;;;;;;;;;4288788;33;20205;-72
2021/12/25 06:14:33;;;;;;;23.33;6.68;;;;;;;;;;4276716;33;20092;-72
2021/12/25 06:17:00;;;;;;;10.13;6.25;;;;;;;;;;4289880;33;20118;-73
2021/12/25 06:19:26;;;;;;;9.88;7.68;;;;;;;;;;4276199;33;20455;-71
2021/12/25 06:21:52;;;;;;;10.20;7.87;;;;;;;;;;4290023;33;20114;-73
2021/12/25 06:24:20;;;;;;;10.05;7.55;;;;;;;;;;4289648;33;20123;-71
2021/12/25 06:26:46;;;;;;;10.13;7.70;;;;;;;;;;4276609;33;20522;-71
2021/12/25 06:29:19;;;;;;;9.13;7.32;;;;;;;;;;4288240;33;20174;-71
2021/12/25 06:31:46;;;;;;;8.68;7.78;;;;;;;;;;4289791;33;20103;-72
2021/12/25 06:34:12;;;;;;;7.65;6.37;;;;;;;;;;4289683;33;20135;-71
2021/12/25 06:36:38;;;;;;;9.93;6.72;;;;;;;;;;4289704;33;20125;-72
2021/12/25 06:39:04;;;;;;;17.83;7.07;;;;;;;;;;4289713;33;20129;-71
2021/12/25 06:41:31;;;;;;;28.15;7.43;;;;;;;;;;4289752;33;20168;-72
2021/12/25 06:43:57;;;;;;;11.68;7.15;;;;;;;;;;4289695;33;20106;-72
2021/12/25 06:46:23;;;;;;;8.38;6.97;;;;;;;;;;4288446;33;20527;-72
2021/12/25 06:48:49;;;;;;;8.95;7.68;;;;;;;;;;4288272;33;20179;-71
2021/12/25 06:51:17;;;;;;;10.68;7.85;;;;;;;;;;4289563;33;20096;-72
2021/12/25 06:53:43;;;;;;;9.73;7.82;;;;;;;;;;4289513;33;20084;-77
2021/12/25 06:56:10;;;;;;;10.07;8.10;;;;;;;;;;4289616;33;20100;-81
2021/12/25 06:58:36;;;;;;;11.40;9.63;;;;;;;;;;4276352;33;20134;-76
2021/12/25 07:01:03;;;;;;;10.13;9.05;;;;;;;;;;4288111;33;20209;-73
2021/12/25 07:03:30;;;;;;;10.48;8.73;;;;;;;;;;4264184;33;20092;-72
2021/12/25 07:05:56;;;;;;;8.60;7.50;;;;;;;;;;4276648;33;20099;-72
2021/12/25 07:08:22;;;;;;;9.77;8.02;;;;;;;;;;4289631;33;20103;-72
2021/12/25 07:10:49;;;;;;;8.25;7.43;;;;;;;;;;4276479;33;20148;-72
2021/12/25 07:13:19;;;;;;;9.38;8.48;;;;;;;;;;4276171;33;20116;-70
2021/12/25 07:15:46;;;;;;;8.45;7.28;;;;;;;;;;4276016;33;20130;-70
2021/12/25 07:18:12;;;;;;;9.85;8.27;;;;;;;;;;4276249;33;20194;-72
2021/12/25 07:20:39;;;;;;;12.90;9.48;;;;;;;;;;4275834;33;20131;-71
2021/12/25 07:23:05;;;;;;;12.13;10.82;;;;;;;;;;4276363;33;20115;-71
2021/12/25 07:25:31;;;;;;;11.63;9.43;;;;;;;;;;4289405;33;20118;-71
2021/12/25 07:27:57;;;;;;;9.35;8.23;;;;;;;;;;4275871;33;20467;-71
2021/12/25 07:30:23;;;;;;;10.07;7.75;;;;;;;;;;4289256;33;20571;-72
2021/12/25 07:32:49;;;;;;;7.60;6.45;;;;;;;;;;4275911;33;20126;-71
2021/12/25 07:35:15;;;;;;;11.00;9.30;;;;;;;;;;4289087;33;20100;-72
2021/12/25 07:37:41;;;;;;;6.75;6.05;;;;;;;;;;4263921;33;20135;-72
2021/12/25 07:40:11;;;;;;;8.27;6.70;;;;;;;;;;4289097;33;20118;-66
2021/12/25 07:42:40;;;;;;;9.52;8.50;;;;;;;;;;4253271;33;20448;-68
2021/12/25 07:45:07;;;;;;;15.15;10.50;;;;;;;;;;4289134;33;20112;-67
2021/12/25 07:47:35;;;;;;;12.60;10.45;;;;;;;;;;4264099;33;20187;-67
2021/12/25 07:50:04;;;;;;;13.05;9.73;;;;;;;;;;4289043;33;20098;-69
2021/12/25 07:52:30;;;;;;;11.57;9.38;;;;;;;;;;4287523;33;20182;-68
2021/12/25 07:54:56;;;;;;;9.10;7.15;;;;;;;;;;4288947;33;20122;-67
2021/12/25 07:57:23;;;;;;;9.70;6.07;;;;;;;;;;4263974;33;20103;-68
2021/12/25 07:59:49;;;;;;;8.13;6.50;;;;;;;;;;4275634;33;20535;-74
2021/12/25 08:02:15;;;;;;;14.82;6.72;;;;;;;;;;4275579;33;20544;-68
2021/12/25 08:04:41;;;;;;;7.07;6.10;;;;;;;;;;4288977;33;20108;-68
2021/12/25 08:07:08;;;;;;;7.72;5.93;;;;;;;;;;4288963;33;20126;-72
2021/12/25 08:09:35;;;;;;;9.70;6.85;;;;;;;;;;4275855;33;20180;-71
2021/12/25 08:12:03;;;;;;;11.12;9.40;;;;;;;;;;4275613;33;20132;-71
2021/12/25 08:14:30;;;;;;;9.95;8.00;;;;;;;;;;4288246;33;20519;-69
2021/12/25 08:16:57;;;;;;;12.75;9.63;;;;;;;;;;4277668;33;20107;-70
2021/12/25 08:19:24;;;;;;;14.02;10.73;;;;;;;;;;4265617;33;20183;-76
2021/12/25 08:21:50;;;;;;;17.83;9.82;;;;;;;;;;4291170;33;20088;-70
2021/12/25 08:24:18;;;;;;;9.07;7.25;;;;;;;;;;4277727;33;20119;-69
2021/12/25 08:26:45;;;;;;;7.22;6.07;;;;;;;;;;4288717;33;20102;-68
2021/12/25 08:29:11;;;;;;;7.43;6.35;;;;;;;;;;4277691;33;20123;-69
2021/12/25 08:31:37;;;;;;;9.07;6.30;;;;;;;;;;4277804;33;20111;-69
2021/12/25 08:34:04;;;;;;;9.85;6.70;;;;;;;;;;4290746;33;20115;-69
2021/12/25 08:36:30;;;;;;;7.50;6.10;;;;;;;;;;4277236;33;20107;-70
2021/12/25 08:38:56;;;;;;;9.00;6.35;;;;;;;;;;4290610;33;20129;-69
2021/12/25 08:41:27;;;;;;;6.53;5.55;;;;;;;;;;4277301;33;20076;-70
2021/12/25 08:43:58;;;;;;;6.25;5.60;;;;;;;;;;4277876;33;20124;-69
2021/12/25 08:46:43;;;;;;;7.35;6.47;;;;;;;;;;4290733;33;20104;-69
2021/12/25 08:49:14;;;;;;;9.52;6.50;;;;;;;;;;4279549;33;20104;-69
2021/12/25 08:51:41;;;;;;;11.43;6.53;;;;;;;;;;4278048;33;20123;-70
2021/12/25 08:54:07;;;;;;;6.87;5.75;;;;;;;;;;4277213;33;20104;-69
2021/12/25 08:56:33;;;;;;;9.23;6.45;;;;;;;;;;4277385;33;20195;-69
2021/12/25 08:59:00;;;;;;;8.07;6.93;;;;;;;;;;4290611;33;20119;-69
2021/12/25 09:01:26;;;;;;;6.82;5.72;;;;;;;;;;4290512;33;20187;-68
2021/12/25 09:03:55;;;;;;;7.75;6.35;;;;;;;;;;4288970;33;20100;-67
2021/12/25 09:06:21;;;;;;;8.52;7.12;;;;;;;;;;4276919;33;20232;-68
2021/12/25 09:08:47;;;;;;;8.40;6.75;;;;;;;;;;4265167;33;20757;-69
2021/12/25 09:11:13;;;;;;;6.40;5.68;;;;;;;;;;4290441;33;20471;-68
2021/12/25 09:13:40;;;;;;;7.47;6.28;;;;;;;;;;4277291;33;20570;-68
2021/12/25 09:16:06;;;;;;;6.80;5.37;;;;;;;;;;4277452;33;20630;-70
2021/12/25 09:18:32;;;;;;;6.60;5.70;;;;;;;;;;4290320;33;20135;-69
2021/12/25 09:20:58;;;;;;;8.75;7.82;;;;;;;;;;4276790;33;20543;-69
2021/12/25 09:23:24;;;;;;;8.35;6.22;;;;;;;;;;4290486;33;20213;-70
2021/12/25 09:25:50;;;;;;;8.65;7.50;;;;;;;;;;4290850;33;20197;-69
2021/12/25 09:28:18;;;;;;;7.95;7.05;;;;;;;;;;4277960;33;20202;-71
2021/12/25 09:30:44;;;;;;;7.03;6.25;;;;;;;;;;4290374;33;20095;-68
2021/12/25 09:33:11;;;;;;;8.50;7.40;;;;;;;;;;4290378;33;20123;-67
2021/12/25 09:35:37;;;;;;;11.00;9.73;;;;;;;;;;4290197;33;20103;-67
2021/12/25 09:38:04;;;;;;;10.93;9.82;;;;;;;;;;4290186;33;20123;-67
2021/12/25 09:40:30;;;;;;;9.02;8.07;;;;;;;;;;4290126;33;20138;-70
2021/12/25 09:42:56;;;;;;;9.63;8.48;;;;;;;;;;4290292;33;20199;-68
2021/12/25 09:45:23;;;;;;;10.55;9.45;;;;;;;;;;4277083;33;20454;-68
2021/12/25 09:47:49;;;;;;;11.35;9.32;;;;;;;;;;4290314;33;20207;-69
2021/12/25 09:50:15;;;;;;;11.10;8.57;;;;;;;;;;4290095;33;20522;-69
2021/12/25 09:52:43;;;;;;;7.20;6.22;;;;;;;;;;4276858;33;20112;-68
2021/12/25 09:55:11;;;;;;;10.02;6.47;;;;;;;;;;4290032;33;20135;-68
2021/12/25 09:57:37;;;;;;;10.30;7.20;;;;;;;;;;4290182;33;20103;-67
2021/12/25 10:00:33;;;;;;;8.63;6.32;;;;;;;;;;4289895;33;20464;-67
2021/12/25 10:03:39;;;;;;;8.50;6.72;;;;;;;;;;4283413;33;20124;-68
2021/12/25 10:06:51;;;;;;;9.38;7.37;;;;;;;;;;4251427;33;20123;-69
2021/12/25 10:09:18;;;;;;;11.80;9.25;;;;;;;;;;4288649;33;20340;-69
2021/12/25 10:12:14;;;;;;;13.57;10.57;;;;;;;;;;4288662;33;20212;-73
2021/12/25 10:14:43;;;;;;;13.83;11.23;;;;;;;;;;4268447;33;20190;-73
2021/12/25 10:17:18;;;;;;;10.20;9.10;;;;;;;;;;4276202;33;20088;-73
2021/12/25 10:20:23;;;;;;;10.88;9.38;;;;;;;;;;4276754;33;20198;-73
2021/12/25 10:22:58;;;;;;;12.95;9.25;;;;;;;;;;4269083;33;20527;-73
2021/12/25 10:25:31;;;;;;;13.00;8.90;;;;;;;;;;4288479;33;20225;-74
2021/12/25 10:28:00;;;;;;;8.82;6.97;;;;;;;;;;4289749;33;20503;-73
2021/12/25 10:30:26;;;;;;;7.43;6.20;;;;;;;;;;4289988;33;20120;-74
2021/12/25 10:32:53;;;;;;;7.93;5.68;;;;;;;;;;4289793;33;20194;-73
2021/12/25 10:35:26;;;;;;;7.03;6.25;;;;;;;;;;4288279;33;20103;-73
2021/12/25 10:37:52;;;;;;;9.82;6.07;;;;;;;;;;4275736;33;20124;-73
2021/12/25 10:40:31;;;;;;;7.78;6.30;;;;;;;;;;4288359;33;20092;-73
2021/12/25 10:43:00;;;;;;;8.13;6.15;;;;;;;;;;4276846;33;20115;-73
2021/12/25 10:45:29;;;;;;;6.40;5.53;;;;;;;;;;4288204;33;20121;-74
2021/12/25 10:48:10;;;;;;;7.28;6.45;;;;;;;;;;4264489;33;20203;-73
2021/12/25 10:50:39;;;;;;;8.65;7.72;;;;;;;;;;4288471;33;20128;-70
2021/12/25 10:53:22;;;;;;;9.65;6.70;;;;;;;;;;4288173;33;20543;-71
2021/12/25 10:55:49;;;;;;;7.93;6.78;;;;;;;;;;4276430;33;20500;-71
2021/12/25 10:58:20;;;;;;;6.37;5.78;;;;;;;;;;4289561;33;20203;-65
2021/12/25 11:00:54;;;;;;;7.72;6.07;;;;;;;;;;4289371;33;20630;-65
2021/12/25 11:03:34;;;;;;;7.12;5.62;;;;;;;;;;4288262;33;20087;-65
2021/12/25 11:06:09;;;;;;;6.43;5.82;;;;;;;;;;4276025;33;20175;-67
2021/12/25 11:08:36;;;;;;;8.55;7.30;;;;;;;;;;4289440;33;20558;-65
2021/12/25 11:11:04;;;;;;;9.15;6.95;;;;;;;;;;4289251;33;20096;-67
2021/12/25 11:13:41;;;;;;;8.75;7.25;;;;;;;;;;4289491;33;20103;-70
2021/12/25 11:16:20;;;;;;;24.37;7.87;;;;;;;;;;4287882;33;20115;-70
2021/12/25 11:19:11;;;;;;;9.10;7.05;;;;;;;;;;4287475;33;20190;-70
2021/12/25 11:21:43;;;;;;;10.40;7.43;;;;;;;;;;4274933;33;20112;-71
2021/12/25 11:24:15;;;;;;;9.60;6.68;;;;;;;;;;4287189;33;20527;-70
2021/12/25 11:26:43;;;;;;;10.15;7.62;;;;;;;;;;4274056;33;20100;-70
2021/12/25 11:29:12;;;;;;;9.07;6.35;;;;;;;;;;4286129;33;20135;-70
2021/12/25 11:31:38;;;;;;;8.82;6.75;;;;;;;;;;4274148;33;20138;-70
2021/12/25 11:34:05;;;;;;;12.07;6.87;;;;;;;;;;4287027;33;20115;-70
2021/12/25 11:36:32;;;;;;;8.82;6.60;;;;;;;;;;4273600;33;20123;-70
2021/12/25 11:38:58;;;;;;;10.40;7.00;;;;;;;;;;4274396;33;20136;-70
2021/12/25 11:41:40;;;;;;;9.38;6.35;;;;;;;;;;4264128;33;20112;-70
2021/12/25 11:44:58;;;;;;;8.13;6.03;;;;;;;;;;4271748;33;20195;-69
2021/12/25 11:47:58;;;;;;;;;;;;;;;;;;;;;
2021/12/25 11:50:39;;;;;;;9.40;7.60;;;;;;;;;;4267512;33;20139;-70
2021/12/25 11:53:20;;;;;;;8.52;7.45;;;;;;;;;;4272264;33;20309;-70
2021/12/25 11:58:55;;;;;;;7.93;6.30;;;;;;;;;;4267255;33;20549;-70
2021/12/25 12:01:36;;;;;;;9.00;6.90;;;;;;;;;;4260160;33;20116;-70
2021/12/25 12:04:11;;;;;;;9.02;7.55;;;;;;;;;;4272070;33;20096;-70
2021/12/25 12:06:48;;;;;;;9.88;5.30;;;;;;;;;;4272178;33;20533;-70
2021/12/25 12:09:18;;;;;;;7.85;6.57;;;;;;;;;;4271934;33;20132;-70
2021/12/25 12:11:47;;;;;;;20.65;7.15;;;;;;;;;;4272095;33;20535;-70
2021/12/25 12:14:14;;;;;;;7.62;5.85;;;;;;;;;;4260011;33;20492;-70
2021/12/25 12:16:46;;;;;;;10.40;6.50;;;;;;;;;;4286299;33;20445;-70
2021/12/25 12:19:36;;;;;;;20.27;6.60;;;;;;;;;;4275527;33;20111;-70
2021/12/25 12:22:15;;;;;;;10.57;7.03;;;;;;;;;;4287433;33;20122;-70
2021/12/25 12:27:32;;;;;;;10.77;6.97;;;;;;;;;;4255357;33;20116;-70
2021/12/25 12:29:58;;;;;;;8.32;5.72;;;;;;;;;;4274493;33;20119;-70
2021/12/25 12:32:34;;;;;;;9.90;6.60;;;;;;;;;;4275279;33;20515;-69
2021/12/25 12:35:01;;;;;;;10.63;8.75;;;;;;;;;;4288528;33;20149;-70
2021/12/25 12:37:29;;;;;;;9.80;8.32;;;;;;;;;;4288520;33;20134;-70
2021/12/25 12:40:01;;;;;;;8.68;7.18;;;;;;;;;;4275254;33;20127;-70
2021/12/25 12:43:02;;;;;;;14.23;10.40;;;;;;;;;;4288529;33;20111;-70
2021/12/25 12:45:34;;;;;;;21.20;8.68;;;;;;;;;;4259076;33;20672;-70
2021/12/25 12:48:14;;;;;;;10.75;7.00;;;;;;;;;;4275399;33;20240;-70
2021/12/25 12:50:43;;;;;;;9.45;6.97;;;;;;;;;;4275201;33;20118;-70
2021/12/25 12:53:09;;;;;;;8.35;6.53;;;;;;;;;;4275230;33;20102;-70
2021/12/25 12:55:37;;;;;;;8.38;6.82;;;;;;;;;;4275311;33;20437;-70
2021/12/25 12:58:17;;;;;;;8.52;7.00;;;;;;;;;;4275211;33;20092;-70
2021/12/25 13:00:53;;;;;;;8.77;6.32;;;;;;;;;;4276294;33;20126;-70
2021/12/25 13:03:19;;;;;;;9.27;6.82;;;;;;;;;;4277439;33;20193;-70
2021/12/25 13:05:52;;;;;;;7.25;5.60;;;;;;;;;;4290511;33;20119;-70
2021/12/25 13:08:21;;;;;;;9.30;5.75;;;;;;;;;;4277310;33;20543;-70
2021/12/25 13:10:51;;;;;;;10.02;5.20;;;;;;;;;;4277173;33;20119;-70
2021/12/25 13:13:23;;;;;;;8.05;5.57;;;;;;;;;;4277743;33;20122;-71
2021/12/25 13:15:57;;;;;;;12.30;6.90;;;;;;;;;;4290644;33;20211;-71
2021/12/25 13:18:41;;;;;;;5.75;5.00;;;;;;;;;;4277014;33;20104;-70
2021/12/25 13:21:14;;;;;;;9.02;5.57;;;;;;;;;;4290332;33;20100;-70
2021/12/25 13:23:54;;;;;;;14.38;6.60;;;;;;;;;;4265251;33;20542;-70
2021/12/25 13:26:22;;;;;;;7.07;4.87;;;;;;;;;;4290487;33;20519;-70
2021/12/25 13:28:50;;;;;;;10.48;5.65;;;;;;;;;;4290386;33;20119;-70
2021/12/25 13:31:22;;;;;;;7.40;5.72;;;;;;;;;;4288941;33;20181;-70
2021/12/25 13:33:57;;;;;;;6.50;5.80;;;;;;;;;;4290222;33;20198;-70
2021/12/25 13:36:25;;;;;;;8.15;5.50;;;;;;;;;;4277158;33;20112;-71
2021/12/25 13:38:58;;;;;;;8.40;5.32;;;;;;;;;;4276834;33;20111;-70
2021/12/25 13:41:32;;;;;;;16.65;10.77;;;;;;;;;;4290255;33;20092;-71
2021/12/25 13:44:17;;;;;;;9.43;6.57;;;;;;;;;;4290144;33;20144;-71
2021/12/25 13:46:56;;;;;;;7.93;6.70;;;;;;;;;;4277190;33;20167;-71
2021/12/25 13:49:24;;;;;;;8.57;5.00;;;;;;;;;;4265068;33;20216;-71
2021/12/25 13:51:51;;;;;;;20.08;6.22;;;;;;;;;;4288800;33;20127;-70
2021/12/25 13:54:18;;;;;;;6.72;4.85;;;;;;;;;;4277021;33;20087;-70
2021/12/25 13:56:46;;;;;;;8.80;5.50;;;;;;;;;;4290171;33;20131;-71
2021/12/25 13:59:13;;;;;;;6.97;5.40;;;;;;;;;;4276963;33;20145;-70
2021/12/25 14:01:39;;;;;;;18.95;5.95;;;;;;;;;;4277075;33;20447;-71
2021/12/25 14:04:09;;;;;;;6.57;4.82;;;;;;;;;;4276490;33;20115;-71
2021/12/25 14:06:37;;;;;;;7.45;5.00;;;;;;;;;;4276925;33;20103;-71
2021/12/25 14:09:04;;;;;;;6.37;4.95;;;;;;;;;;4276651;33;20099;-71
2021/12/25 14:11:31;;;;;;;10.68;5.95;;;;;;;;;;4276098;33;20479;-71
2021/12/25 14:13:57;;;;;;;7.10;5.37;;;;;;;;;;4276291;33;20148;-70
2021/12/25 14:16:23;;;;;;;9.55;5.90;;;;;;;;;;4276373;33;20637;-70
2021/12/25 14:18:49;;;;;;;15.43;6.82;;;;;;;;;;4276693;33;20115;-70
2021/12/25 14:21:18;;;;;;;9.80;5.90;;;;;;;;;;4276368;33;20500;-70
2021/12/25 14:23:46;;;;;;;13.52;5.97;;;;;;;;;;4276550;33;20107;-70
2021/12/25 14:26:19;;;;;;;6.93;4.97;;;;;;;;;;4289746;33;20139;-70
2021/12/25 14:28:45;;;;;;;9.13;5.72;;;;;;;;;;4276192;33;20100;-70
2021/12/25 14:31:14;;;;;;;8.07;4.70;;;;;;;;;;4288691;33;20126;-70
2021/12/25 14:33:51;;;;;;;11.18;5.62;;;;;;;;;;4276653;33;20191;-70
2021/12/25 14:36:17;;;;;;;22.02;5.05;;;;;;;;;;4289777;33;20197;-70
2021/12/25 14:38:48;;;;;;;9.60;4.68;;;;;;;;;;4289667;33;20111;-70
2021/12/25 14:41:16;;;;;;;6.50;4.93;;;;;;;;;;4264547;33;20212;-69
2021/12/25 14:43:42;;;;;;;12.60;4.47;;;;;;;;;;4264150;33;20533;-70
2021/12/25 14:46:10;;;;;;;7.90;3.85;;;;;;;;;;4276313;33;20088;-69
2021/12/25 14:48:41;;;;;;;6.75;4.30;;;;;;;;;;4264285;33;20483;-70
2021/12/25 14:51:13;;;;;;;14.55;7.72;;;;;;;;;;4289623;33;20111;-69
2021/12/25 14:53:49;;;;;;;9.27;6.32;;;;;;;;;;4289607;33;20134;-70
2021/12/25 14:56:23;;;;;;;13.02;5.37;;;;;;;;;;4276529;33;20187;-70
2021/12/25 14:58:58;;;;;;;6.45;4.57;;;;;;;;;;4276140;33;20104;-70
2021/12/25 15:01:27;;;;;;;6.60;4.43;;;;;;;;;;4276370;33;20440;-69
2021/12/25 15:04:05;;;;;;;4.90;4.22;;;;;;;;;;4289407;33;20088;-68
2021/12/25 15:06:32;;;;;;;7.12;4.07;;;;;;;;;;4276483;33;20134;-69
2021/12/25 15:09:11;;;;;;;6.68;4.18;;;;;;;;;;4289597;33;20183;-69
2021/12/25 15:11:44;;;;;;;5.45;3.97;;;;;;;;;;4289534;33;20111;-70
2021/12/25 15:14:16;;;;;;;14.18;4.90;;;;;;;;;;4263791;33;20598;-70
2021/12/25 15:16:48;;;;;;;6.72;4.35;;;;;;;;;;4276253;33;20203;-69
2021/12/25 15:19:22;;;;;;;11.93;6.05;;;;;;;;;;4263699;33;20467;-70
2021/12/25 15:21:49;;;;;;;23.05;6.53;;;;;;;;;;4276423;33;20103;-70
2021/12/25 15:24:19;;;;;;;5.72;4.12;;;;;;;;;;4275836;33;20439;-70
2021/12/25 15:26:49;;;;;;;10.07;5.65;;;;;;;;;;4289548;33;20100;-70
2021/12/25 15:29:16;;;;;;;8.38;4.90;;;;;;;;;;4276080;33;20197;-70
2021/12/25 15:31:43;;;;;;;7.65;4.78;;;;;;;;;;4264206;33;20650;-70
2021/12/25 15:34:16;;;;;;;9.93;4.43;;;;;;;;;;4264457;33;20118;-71
2021/12/25 15:36:45;;;;;;;9.63;5.55;;;;;;;;;;4264131;33;20119;-70
2021/12/25 15:39:20;;;;;;;7.28;4.90;;;;;;;;;;4289176;33;20218;-70
2021/12/25 15:41:48;;;;;;;12.15;6.78;;;;;;;;;;4276018;33;20186;-70
2021/12/25 15:44:17;;;;;;;10.05;5.12;;;;;;;;;;4276018;33;20198;-70
2021/12/25 15:46:43;;;;;;;11.50;5.47;;;;;;;;;;4275778;33;20519;-71
2021/12/25 15:49:09;;;;;;;7.80;5.95;;;;;;;;;;4275859;33;20176;-71
2021/12/25 15:51:35;;;;;;;9.82;5.25;;;;;;;;;;4275617;33;20099;-70
2021/12/25 15:54:02;;;;;;;15.40;5.00;;;;;;;;;;4289123;33;20186;-70
2021/12/25 15:56:29;;;;;;;10.25;5.50;;;;;;;;;;4263756;33;20127;-71
2021/12/25 15:58:55;;;;;;;22.67;6.07;;;;;;;;;;4275852;33;20436;-69
2021/12/25 16:01:22;;;;;;;17.70;4.00;;;;;;;;;;4275862;33;20115;-70
2021/12/25 16:03:48;;;;;;;3.62;3.08;;;;;;;;;;4275488;33;20103;-69
2021/12/25 16:06:14;;;;;;;9.07;4.45;;;;;;;;;;4275849;33;20153;-70
2021/12/25 16:08:40;;;;;;;7.80;3.60;;;;;;;;;;4271117;33;20119;-70
2021/12/25 16:11:08;;;;;;;11.07;4.72;;;;;;;;;;4275741;33;20179;-70
2021/12/25 16:13:35;;;;;;;6.93;4.07;;;;;;;;;;4263650;33;20169;-70
2021/12/25 16:16:01;;;;;;;9.10;4.10;;;;;;;;;;4275808;33;20184;-70
2021/12/25 16:18:30;;;;;;;9.43;5.12;;;;;;;;;;4288694;33;20100;-70
2021/12/25 16:20:57;;;;;;;9.77;6.32;;;;;;;;;;4276074;33;20524;-76
2021/12/25 16:23:23;;;;;;;4.57;3.20;;;;;;;;;;4275569;33;20099;-72
2021/12/25 16:25:50;;;;;;;6.75;3.95;;;;;;;;;;4275609;33;20583;-75